• Join FlightAware (Why Join?)
  • Login
  • US Flag 
12:18PM EDT


 

Airport Tracker/Info


-or-


 

Live Flight TrackerFlight Track Log ✈ UAL1647 ✈ 05-May-2013 ✈ KIAH - KORD

Flight Track Log - Related Links

Times and Time Zones

All times are in EDT time to prevent confusion due to time zone crossing. See the UAL1647 flight status page for this flight to view local times or setup timezone preferences in your user account.

Time Position Orientation Groundspeed Altitude Reporting Facility
EDT Latitude Longitude Course Direction KTS MPH feet Rate Location/Type
08:39PM 29.9796 -95.3529 289° West 64 74 100  Level FlightAware ADS-B
08:39PM 29.9894 -95.3589 332° Northwest 171 197 800 3,000 Climbing FlightAware ADS-B
08:39PM 29.9925 -95.3603 339° North 173 199 1,000 1,980 Climbing FlightAware ADS-B
08:39PM 29.9986 -95.3626 342° North 180 207 1,200 1,020 Climbing FlightAware ADS-B
08:40PM 30.0123 -95.3674 343° North 203 234 1,400 1,380 Climbing FlightAware ADS-B
08:40PM 30.0256 -95.3717 344° North 214 246 1,900 1,920 Climbing FlightAware ADS-B
08:40PM 30.0417 -95.3767 345° North 230 265 2,400 2,160 Climbing FlightAware ADS-B
08:40PM 30.0572 -95.3814 345° North 236 272 3,000 2,520 Climbing FlightAware ADS-B
08:40PM 30.0647 -95.3839 344° North 243 280 3,300 1,860 Climbing FlightAware ADS-B
08:41PM 30.0738 -95.3876 341° North 248 285 3,500 1,260 Climbing FlightAware ADS-B
08:41PM 30.0790 -95.3901 337° Northwest 247 284 3,600 1,980 Climbing FlightAware ADS-B
08:41PM 30.0926 -95.3974 335° Northwest 251 289 4,100 2,760 Climbing FlightAware ADS-B
08:41PM 30.1103 -95.4079 333° Northwest 251 289 5,000 3,720 Climbing FlightAware ADS-B
08:41PM 30.1209 -95.4142 333° Northwest 243 280 5,800 3,660 Climbing FlightAware ADS-B
08:42PM 30.1365 -95.4234 333° Northwest 244 281 6,600 2,760 Climbing FlightAware ADS-B
08:42PM 30.1507 -95.4314 334° Northwest 248 285 7,200 2,460 Climbing FlightAware ADS-B
08:42PM 30.1665 -95.4405 334° Northwest 251 289 7,800 2,700 Climbing FlightAware ADS-B
08:42PM 30.1840 -95.4505 334° Northwest 257 296 8,600 3,060 Climbing FlightAware ADS-B
08:42PM 30.1958 -95.4570 335° Northwest 255 293 9,200 2,640 Climbing FlightAware ADS-B
08:43PM 30.2126 -95.4659 335° Northwest 258 297 9,800 1,560 Climbing FlightAware ADS-B
08:43PM 30.2475 -95.4851 335° Northwest 290 334 10,400 1,140 Climbing FlightAware ADS-B
08:44PM 30.2863 -95.5087 332° Northwest 326 375 11,000 1,740 Climbing FlightAware ADS-B
08:44PM 30.3287 -95.5333 333° Northwest 335 386 12,200 2,700 Climbing FlightAware ADS-B
08:45PM 30.3703 -95.5573 334° Northwest 333 383 13,700 2,580 Climbing FlightAware ADS-B
08:45PM 30.4142 -95.5826 334° Northwest 339 390 14,900 2,220 Climbing FlightAware ADS-B
08:46PM 30.4571 -95.6072 334° Northwest 346 398 16,000 2,160 Climbing FlightAware ADS-B
08:46PM 30.5011 -95.6323 334° Northwest 350 403 17,100 2,220 Climbing FlightAware ADS-B
08:47PM 30.5466 -95.6584 334° Northwest 353 406 18,300 2,220 Climbing FlightAware ADS-B
08:47PM 30.5923 -95.6827 335° Northwest 355 409 19,400 1,920 Climbing FlightAware ADS-B
08:48PM 30.6388 -95.7071 336° Northwest 360 414 20,300 1,740 Climbing FlightAware ADS-B
08:48PM 30.6859 -95.7322 335° Northwest 365 420 21,200 1,740 Climbing FlightAware ADS-B
08:49PM 30.7324 -95.7572 335° Northwest 367 422 22,100 1,740 Climbing FlightAware ADS-B
08:49PM 30.7795 -95.7826 335° Northwest 370 426 23,000 1,560 Climbing FlightAware ADS-B
08:50PM 30.8309 -95.8102 335° Northwest 374 430 23,800 1,320 Climbing FlightAware ADS-B
08:50PM 30.8791 -95.8360 335° Northwest 383 441 24,400 1,140 Climbing FlightAware ADS-B
08:51PM 30.9282 -95.8624 335° Northwest 390 449 25,000 1,140 Climbing FlightAware ADS-B
08:51PM 30.9781 -95.8893 335° Northwest 396 456 25,600 1,200 Climbing FlightAware ADS-B
08:52PM 31.0294 -95.9169 335° Northwest 401 461 26,200 1,260 Climbing FlightAware ADS-B
08:52PM 31.0804 -95.9445 335° Northwest 405 466 26,900 1,200 Climbing FlightAware ADS-B
08:53PM 31.1034 -95.9566 336° Northwest 407 468 27,100 1,020 Climbing FlightAware ADS-B
08:53PM 31.1402 -95.9711 341° North 410 472 27,500 1,200 Climbing FlightAware ADS-B
08:54PM 31.2133 -95.9889 348° North 416 479 28,300 1,080 Climbing FlightAware ADS-B
08:54PM 31.2751 -96.0033 349° North 419 482 28,800 1,020 Climbing FlightAware ADS-B
08:55PM 31.3328 -96.0168 349° North 420 483 29,400 1,260 Climbing FlightAware ADS-B
08:55PM 31.3991 -96.0324 349° North 419 482 30,200 1,200 Climbing FlightAware ADS-B
08:56PM 31.4778 -96.0508 349° North 416 479 31,000 1,140 Climbing FlightAware ADS-B
08:56PM 31.5361 -96.0646 349° North 415 478 31,600 1,080 Climbing FlightAware ADS-B
08:57PM 31.6410 -96.0890 349° North 412 474 32,600 960 Climbing FlightAware
08:58PM 31.6600 -96.0938 348° North 412 474 32,700 600 Climbing FlightAware ADS-B
08:58PM 31.7183 -96.1075 349° North 412 474 33,000 240 Climbing FlightAware ADS-B
08:59PM 31.7927 -96.1250 349° North 412 474 33,000  Level FlightAware ADS-B
09:00PM 31.8837 -96.1415 351° North 418 481 33,000  Level FlightAware ADS-B
09:00PM 31.9079 -96.1370 North 426 490 33,000  Level FlightAware ADS-B
09:00PM 31.9252 -96.1304 18° North 433 498 33,000  Level FlightAware ADS-B
09:00PM 31.9830 -96.1034 22° Northeast 435 501 33,000  Level FlightAware ADS-B
09:01PM 32.0405 -96.0768 21° North 435 501 33,000  Level FlightAware ADS-B
09:01PM 32.0983 -96.0501 21° North 435 501 33,000  Level FlightAware ADS-B
09:02PM 32.1564 -96.0228 22° Northeast 434 499 33,000  Level FlightAware ADS-B
09:03PM 32.2176 -95.9928 23° Northeast 433 498 33,000  Level FlightAware ADS-B
09:03PM 32.2786 -95.9629 23° Northeast 432 497 33,000  Level FlightAware ADS-B
09:04PM 32.3502 -95.9282 22° Northeast 432 497 33,000  Level FlightAware ADS-B
09:04PM 32.4058 -95.9013 22° Northeast 429 494 33,000  Level FlightAware ADS-B
09:05PM 32.4646 -95.8729 22° Northeast 428 493 33,000  Level FlightAware ADS-B
09:06PM 32.5510 -95.8310 22° Northeast 426 490 33,000  Level FlightAware
09:06PM 32.5970 -95.8080 23° Northeast 427 491 33,000  Level FlightAware
09:07PM 32.6700 -95.7730 22° Northeast 426 490 33,000  Level FlightAware
09:07PM 32.7530 -95.7320 23° Northeast 426 490 33,000  Level FlightAware
09:08PM 32.8250 -95.6960 23° Northeast 425 489 33,000  Level FlightAware
09:09PM 32.9070 -95.6560 22° Northeast 425 489 33,000  Level FlightAware
09:10PM 32.9780 -95.6210 22° Northeast 424 488 33,000  Level FlightAware
09:10PM 33.0540 -95.5840 22° Northeast 424 488 33,000  Level FlightAware
09:11PM 33.1340 -95.5440 23° Northeast 423 487 33,000  Level FlightAware
09:12PM 33.2080 -95.5080 22° Northeast 424 488 33,000  Level FlightAware
09:13PM 33.1740 -95.5240 201° Southwest 425 489 33,000  Level FlightAware
09:13PM 33.3900 -95.4170 22° Northeast 426 490 33,000  Level FlightAware
09:14PM 33.4640 -95.3800 23° Northeast 426 490 33,000  Level FlightAware
09:15PM 33.5450 -95.3400 22° Northeast 427 491 33,000  Level FlightAware
09:15PM 33.6140 -95.3050 23° Northeast 427 491 33,000  Level FlightAware
09:16PM 33.7000 -95.2620 23° Northeast 427 491 33,000  Level FlightAware
09:17PM 33.7720 -95.2260 23° Northeast 425 489 33,000  Level FlightAware
09:17PM 33.8180 -95.2030 23° Northeast 425 489 33,000  Level FlightAware
09:18PM 33.8930 -95.1650 23° Northeast 424 488 33,000  Level FlightAware
09:19PM 33.9700 -95.1260 23° Northeast 422 486 33,000  Level FlightAware
09:19PM 34.0450 -95.0890 22° Northeast 421 484 33,000  Level FlightAware
09:20PM 34.1230 -95.0480 24° Northeast 418 481 33,000  Level FlightAware
09:21PM 34.2050 -95.0070 22° Northeast 416 479 33,000  Level FlightAware
09:21PM 34.2640 -94.9770 23° Northeast 415 478 33,000  Level FlightAware
09:22PM 34.3400 -94.9390 22° Northeast 415 478 33,000  Level FlightAware
09:23PM 34.4010 -94.9090 22° Northeast 415 478 33,000  Level FlightAware
09:23PM 34.4610 -94.8790 22° Northeast 415 478 33,000  Level FlightAware
09:24PM 34.5370 -94.8420 22° Northeast 415 478 33,000  Level FlightAware
09:25PM 34.5980 -94.8130 21° North 415 478 33,000  Level FlightAware
09:26PM 34.6580 -94.7830 22° Northeast 415 478 33,000  Level FlightAware
09:26PM 34.7190 -94.7530 22° Northeast 415 478 33,000  Level FlightAware
09:27PM 34.7790 -94.7230 22° Northeast 415 478 33,000  Level FlightAware
09:28PM 34.8550 -94.6860 22° Northeast 415 478 33,000  Level FlightAware
09:28PM 34.9150 -94.6560 22° Northeast 415 478 33,000  Level FlightAware
09:29PM 34.9760 -94.6270 21° North 415 478 33,000  Level FlightAware
09:30PM 35.0360 -94.5970 22° Northeast 415 478 33,000  Level FlightAware
09:30PM 35.0970 -94.5670 22° Northeast 415 478 33,000  Level FlightAware
09:31PM 35.1730 -94.5290 22° Northeast 415 478 33,000  Level FlightAware
09:32PM 35.3328 -94.4244 22° Northeast 403 464 33,000  Level Kansas City Center
09:33PM 35.4547 -94.3603 23° Northeast 398 458 33,000  Level Kansas City Center
09:34PM 35.5564 -94.3072 23° Northeast 397 457 33,000  Level Kansas City Center
09:35PM 35.6592 -94.2533 23° Northeast 398 458 33,000  Level Kansas City Center
09:36PM 35.7575 -94.1994 24° Northeast 402 463 33,000  Level Memphis Center
09:37PM 35.8614 -94.1453 23° Northeast 402 463 33,000  Level Memphis Center
09:38PM 35.9694 -94.0886 23° Northeast 402 463 33,000  Level Memphis Center
09:39PM 36.0817 -94.0269 24° Northeast 402 463 33,000  Level Memphis Center
09:40PM 36.1811 -93.9775 22° Northeast 409 471 33,000  Level Memphis Center
09:42PM 36.4153 -93.8494 24° Northeast 414 476 33,000  Level Kansas City Center
09:43PM 36.5225 -93.7914 24° Northeast 419 482 33,000  Level Kansas City Center
09:44PM 36.6353 -93.7303 23° Northeast 418 481 33,000  Level Kansas City Center
09:45PM 36.7428 -93.6731 23° Northeast 418 481 33,100 420 Climbing Kansas City Center
09:46PM 36.8511 -93.6131 24° Northeast 423 487 33,900 720 Climbing Kansas City Center
09:47PM 36.9469 -93.5586 24° Northeast 420 483 34,600 540 Climbing Kansas City Center
09:48PM 37.0778 -93.4875 23° Northeast 423 487 35,000 180 Climbing Kansas City Center
09:49PM 37.1883 -93.4292 23° Northeast 427 491 35,000  Level Kansas City Center
09:50PM 37.2975 -93.3694 24° Northeast 426 490 35,000  Level Kansas City Center
09:51PM 37.4000 -93.2986 29° Northeast 419 482 35,000  Level Kansas City Center
09:52PM 37.4928 -93.2072 38° Northeast 420 483 35,000  Level Kansas City Center
09:53PM 37.5878 -93.1189 36° Northeast 421 484 35,000  Level Kansas City Center
09:59PM 38.1180 -92.6240 36° Northeast 422 486 35,000  Level FlightAware
10:00PM 38.2120 -92.5350 37° Northeast 421 484 35,000  Level FlightAware
10:01PM 38.2910 -92.4600 37° Northeast 421 484 35,000  Level FlightAware
10:01PM 38.3440 -92.4090 37° Northeast 421 484 35,000  Level FlightAware
10:02PM 38.4100 -92.3460 37° Northeast 421 484 35,000  Level FlightAware
10:03PM 38.4630 -92.2950 37° Northeast 421 484 35,000  Level FlightAware
10:03PM 38.5160 -92.2440 37° Northeast 421 484 35,000  Level FlightAware
10:04PM 38.5690 -92.1930 37° Northeast 421 484 35,000  Level FlightAware
10:05PM 38.6220 -92.1420 37° Northeast 421 484 35,000  Level FlightAware
10:06PM 38.6880 -92.0780 37° Northeast 421 484 35,000  Level FlightAware
10:06PM 38.7410 -92.0270 37° Northeast 421 484 35,000  Level FlightAware
10:07PM 38.7930 -91.9760 37° Northeast 421 484 35,000  Level FlightAware
10:08PM 38.9370 -91.8400 36° Northeast 409 471 35,000  Level FlightAware
10:08PM 38.9920 -91.7870 37° Northeast 410 472 35,000  Level FlightAware
10:09PM 39.0650 -91.7160 37° Northeast 411 473 35,000  Level FlightAware
10:10PM 39.1200 -91.6620 37° Northeast 411 473 35,000  Level FlightAware
10:10PM 39.1800 -91.6030 37° Northeast 411 473 35,000  Level FlightAware
10:11PM 39.2560 -91.5290 37° Northeast 414 476 35,000  Level FlightAware
10:12PM 39.3200 -91.4660 37° Northeast 418 481 35,000  Level FlightAware
10:13PM 39.3780 -91.4080 38° Northeast 417 480 35,000  Level FlightAware
10:13PM 39.4400 -91.3470 37° Northeast 418 481 35,000  Level FlightAware
10:14PM 39.5100 -91.2780 37° Northeast 418 481 35,000  Level FlightAware
10:15PM 39.5780 -91.2100 38° Northeast 420 483 35,000  Level FlightAware
10:15PM 39.6420 -91.1460 38° Northeast 420 483 35,000  Level FlightAware
10:16PM 39.7100 -91.0790 37° Northeast 420 483 35,000 -240 Level FlightAware
10:17PM 39.7680 -91.0210 38° Northeast 420 483 34,700 -720 Descending FlightAware
10:17PM 39.8250 -90.9630 38° Northeast 419 482 34,100 -960 Descending FlightAware
10:18PM 39.8830 -90.9050 37° Northeast 420 483 33,500 -1,020 Descending FlightAware
10:19PM 39.9560 -90.8320 37° Northeast 421 484 32,700 -1,020 Descending FlightAware
10:19PM 40.0180 -90.7690 38° Northeast 424 488 32,100 -960 Descending FlightAware
10:20PM 40.0850 -90.7010 38° Northeast 425 489 31,400 -780 Descending FlightAware
10:21PM 40.1470 -90.6370 38° Northeast 426 490 31,000 -300 Descending FlightAware
10:22PM 40.2100 -90.5740 37° Northeast 425 489 31,000  Level FlightAware
10:22PM 40.2820 -90.5010 38° Northeast 425 489 31,000  Level FlightAware
10:23PM 40.3430 -90.4380 38° Northeast 425 489 31,000  Level FlightAware
10:24PM 40.4060 -90.3730 38° Northeast 426 490 31,000  Level FlightAware
10:24PM 40.4760 -90.3010 38° Northeast 427 491 31,000  Level FlightAware
10:25PM 40.5300 -90.2330 44° Northeast 423 487 31,000  Level FlightAware
10:26PM 40.5900 -90.1430 49° Northeast 423 487 31,000  Level FlightAware
10:26PM 40.6390 -90.0670 50° Northeast 423 487 31,000  Level FlightAware
10:27PM 40.6990 -89.9750 49° Northeast 424 488 31,000  Level FlightAware
10:28PM 40.7490 -89.9000 49° Northeast 423 487 31,000 -120 Level FlightAware
10:29PM 40.8020 -89.8190 49° Northeast 423 487 30,900 -1,380 Descending FlightAware
10:29PM 40.8590 -89.7320 49° Northeast 424 488 29,100 -2,520 Descending FlightAware
10:30PM 40.9100 -89.6530 49° Northeast 419 482 27,400 -2,400 Descending FlightAware
10:30PM 40.9450 -89.5990 49° Northeast 414 476 26,300 -2,280 Descending FlightAware
10:31PM 40.9960 -89.5190 50° Northeast 404 465 24,800 -2,100 Descending FlightAware
10:32PM 41.0500 -89.4360 49° Northeast 399 459 23,400 -1,440 Descending FlightAware
10:33PM 41.0970 -89.3630 49° Northeast 396 456 22,800 -1,020 Descending FlightAware
10:33PM 41.1430 -89.2900 50° Northeast 395 455 22,100 -1,560 Descending FlightAware
10:34PM 41.1980 -89.2050 49° Northeast 386 444 20,600 -1,980 Descending FlightAware
10:35PM 41.2440 -89.1330 50° Northeast 376 433 19,300 -1,980 Descending FlightAware
10:35PM 41.2860 -89.0670 50° Northeast 368 423 18,000 -2,100 Descending FlightAware
10:36PM 41.3350 -88.9890 50° Northeast 362 417 16,400 -2,160 Descending FlightAware
10:37PM 41.3780 -88.9210 50° Northeast 356 410 15,000 -2,100 Descending FlightAware
10:37PM 41.4260 -88.8450 50° Northeast 354 407 13,500 -2,100 Descending FlightAware
10:38PM 41.4690 -88.7770 50° Northeast 349 402 12,100 -1,980 Descending FlightAware
10:39PM 41.5090 -88.7120 51° Northeast 341 392 10,900 -900 Descending FlightAware
10:40PM 41.5400 -88.6370 61° Northeast 292 336 10,900  Level FlightAware
10:40PM 41.5630 -88.5780 62° Northeast 271 312 10,900 -300 Level FlightAware
10:41PM 41.5880 -88.5070 65° Northeast 271 312 10,500 -900 Descending FlightAware
10:41PM 41.6000 -88.4710 66° East 271 312 9,900 -1,320 Descending FlightAware
10:42PM 41.6150 -88.4250 66° East 268 308 9,300 -1,320 Descending FlightAware
10:42PM 41.6270 -88.3890 66° East 268 308 8,700 -1,440 Descending FlightAware
10:43PM 41.6430 -88.3410 66° East 265 305 8,000 -900 Descending FlightAware
10:43PM 41.6550 -88.3060 65° Northeast 262 302 7,900 -600 Descending FlightAware
10:43PM 41.6630 -88.2830 65° Northeast 263 303 7,600 -1,380 Descending FlightAware
10:44PM 41.6790 -88.2380 65° Northeast 262 302 6,900 -1,320 Descending FlightAware
10:44PM 41.7000 -88.1980 55° Northeast 263 303 6,300 -1,140 Descending FlightAware
10:45PM 41.7220 -88.1720 41° Northeast 258 297 5,900 -780 Descending FlightAware
10:45PM 41.7470 -88.1430 41° Northeast 240 276 5,600 -600 Descending FlightAware
10:46PM 41.7680 -88.1190 40° Northeast 221 254 5,400 -1,020 Descending FlightAware
10:46PM 41.7910 -88.0910 42° Northeast 220 253 4,700 -1,140 Descending FlightAware
10:47PM 41.8110 -88.0670 42° Northeast 204 235 4,300 -900 Descending FlightAware
10:47PM 41.8190 -88.0580 40° Northeast 195 224 4,100 -1,200 Descending FlightAware
10:47PM 41.8380 -88.0360 41° Northeast 179 206 3,500 -1,020 Descending FlightAware
10:48PM 41.8570 -88.0130 42° Northeast 175 201 3,100 -900 Descending FlightAware
10:48PM 41.8630 -88.0060 41° Northeast 175 201 2,900 -1,080 Descending FlightAware
10:49PM 41.8820 -87.9840 41° Northeast 174 200 2,400 -900 Descending FlightAware
10:49PM 41.8990 -87.9640 41° Northeast 166 191 2,000 -900 Descending FlightAware
10:50PM 41.9120 -87.9480 42° Northeast 146 168 1,600 -900 Descending FlightAware
10:50PM 41.9270 -87.9310 40° Northeast 139 160 1,200 -780 Descending FlightAware
10:50PM 41.9400 -87.9150 42° Northeast 150 173 900 -600 Descending FlightAware
10:51PM 41.9470 -87.9070 40° Northeast 153 176 800 -420 Descending FlightAware